sensor_id;sensor_type;location;lat;lon;timestamp;P1;durP1;ratioP1;P2;durP2;ratioP2
73474;SDS011;61711;52.266;10.542;2023-05-07T00:00:32;33.30;;;17.15;;
73474;SDS011;61711;52.266;10.542;2023-05-07T00:02:59;29.73;;;16.55;;
73474;SDS011;61711;52.266;10.542;2023-05-07T00:05:25;30.05;;;17.10;;
73474;SDS011;61711;52.266;10.542;2023-05-07T00:07:51;30.20;;;16.85;;
73474;SDS011;61711;52.266;10.542;2023-05-07T00:10:20;32.05;;;17.23;;
73474;SDS011;61711;52.266;10.542;2023-05-07T00:12:46;29.13;;;17.15;;
73474;SDS011;61711;52.266;10.542;2023-05-07T00:15:12;31.92;;;17.00;;
73474;SDS011;61711;52.266;10.542;2023-05-07T00:17:38;32.42;;;16.95;;
73474;SDS011;61711;52.266;10.542;2023-05-07T00:20:04;31.33;;;17.45;;
73474;SDS011;61711;52.266;10.542;2023-05-07T00:22:30;30.38;;;16.02;;
73474;SDS011;61711;52.266;10.542;2023-05-07T00:24:57;27.58;;;14.77;;
73474;SDS011;61711;52.266;10.542;2023-05-07T00:27:24;23.42;;;13.07;;
73474;SDS011;61711;52.266;10.542;2023-05-07T00:29:50;21.75;;;12.68;;
73474;SDS011;61711;52.266;10.542;2023-05-07T00:32:16;22.08;;;12.75;;
73474;SDS011;61711;52.266;10.542;2023-05-07T00:34:42;21.17;;;11.77;;
73474;SDS011;61711;52.266;10.542;2023-05-07T00:37:08;20.52;;;11.52;;
73474;SDS011;61711;52.266;10.542;2023-05-07T00:39:35;20.75;;;12.05;;
73474;SDS011;61711;52.266;10.542;2023-05-07T00:42:01;18.88;;;11.02;;
73474;SDS011;61711;52.266;10.542;2023-05-07T00:44:27;19.98;;;11.55;;
73474;SDS011;61711;52.266;10.542;2023-05-07T00:46:54;20.38;;;11.63;;
73474;SDS011;61711;52.266;10.542;2023-05-07T00:49:21;19.17;;;11.73;;
73474;SDS011;61711;52.266;10.542;2023-05-07T00:51:47;21.90;;;11.65;;
73474;SDS011;61711;52.266;10.542;2023-05-07T00:54:13;21.48;;;12.05;;
73474;SDS011;61711;52.266;10.542;2023-05-07T00:56:39;21.33;;;12.60;;
73474;SDS011;61711;52.266;10.542;2023-05-07T00:59:05;24.17;;;12.98;;
73474;SDS011;61711;52.266;10.542;2023-05-07T01:01:32;20.60;;;12.52;;
73474;SDS011;61711;52.266;10.542;2023-05-07T01:03:58;23.33;;;12.63;;
73474;SDS011;61711;52.266;10.542;2023-05-07T01:06:24;22.33;;;12.88;;
73474;SDS011;61711;52.266;10.542;2023-05-07T01:08:52;21.80;;;13.07;;
73474;SDS011;61711;52.266;10.542;2023-05-07T01:11:21;22.20;;;12.40;;
73474;SDS011;61711;52.266;10.542;2023-05-07T01:13:47;22.77;;;12.55;;
73474;SDS011;61711;52.266;10.542;2023-05-07T01:16:15;21.73;;;11.85;;
73474;SDS011;61711;52.266;10.542;2023-05-07T01:18:41;20.05;;;11.00;;
73474;SDS011;61711;52.266;10.542;2023-05-07T01:21:07;20.25;;;11.68;;
73474;SDS011;61711;52.266;10.542;2023-05-07T01:23:34;19.10;;;10.95;;
73474;SDS011;61711;52.266;10.542;2023-05-07T01:26:00;19.50;;;11.00;;
73474;SDS011;61711;52.266;10.542;2023-05-07T01:28:26;19.88;;;11.20;;
73474;SDS011;61711;52.266;10.542;2023-05-07T01:30:54;19.75;;;11.07;;
73474;SDS011;61711;52.266;10.542;2023-05-07T01:33:21;18.92;;;10.90;;
73474;SDS011;61711;52.266;10.542;2023-05-07T01:35:48;19.52;;;10.63;;
73474;SDS011;61711;52.266;10.542;2023-05-07T01:38:15;19.13;;;11.27;;
73474;SDS011;61711;52.266;10.542;2023-05-07T01:40:42;18.90;;;11.05;;
73474;SDS011;61711;52.266;10.542;2023-05-07T01:43:08;22.13;;;11.40;;
73474;SDS011;61711;52.266;10.542;2023-05-07T01:45:34;19.05;;;11.07;;
73474;SDS011;61711;52.266;10.542;2023-05-07T01:48:01;19.77;;;10.75;;
73474;SDS011;61711;52.266;10.542;2023-05-07T01:50:28;20.15;;;10.77;;
73474;SDS011;61711;52.266;10.542;2023-05-07T01:52:55;20.33;;;10.60;;
73474;SDS011;61711;52.266;10.542;2023-05-07T01:55:21;17.63;;;10.43;;
73474;SDS011;61711;52.266;10.542;2023-05-07T02:00:15;15.95;;;9.85;;
73474;SDS011;61711;52.266;10.542;2023-05-07T02:02:42;17.15;;;9.80;;
73474;SDS011;61711;52.266;10.542;2023-05-07T02:05:08;16.95;;;10.35;;
73474;SDS011;61711;52.266;10.542;2023-05-07T02:07:34;16.27;;;9.68;;
73474;SDS011;61711;52.266;10.542;2023-05-07T02:10:01;16.05;;;9.80;;
73474;SDS011;61711;52.266;10.542;2023-05-07T02:12:27;16.70;;;9.88;;
73474;SDS011;61711;52.266;10.542;2023-05-07T02:14:53;16.35;;;9.68;;
73474;SDS011;61711;52.266;10.542;2023-05-07T02:17:19;17.13;;;10.40;;
73474;SDS011;61711;52.266;10.542;2023-05-07T02:19:45;17.50;;;9.90;;
73474;SDS011;61711;52.266;10.542;2023-05-07T02:22:11;15.85;;;9.93;;
73474;SDS011;61711;52.266;10.542;2023-05-07T02:24:37;15.32;;;9.85;;
73474;SDS011;61711;52.266;10.542;2023-05-07T02:27:03;16.45;;;10.10;;
73474;SDS011;61711;52.266;10.542;2023-05-07T02:29:29;13.88;;;8.82;;
73474;SDS011;61711;52.266;10.542;2023-05-07T02:31:55;15.40;;;9.30;;
73474;SDS011;61711;52.266;10.542;2023-05-07T02:34:21;15.05;;;9.18;;
73474;SDS011;61711;52.266;10.542;2023-05-07T02:36:47;15.98;;;9.60;;
73474;SDS011;61711;52.266;10.542;2023-05-07T02:39:13;15.43;;;9.50;;
73474;SDS011;61711;52.266;10.542;2023-05-07T02:41:40;16.48;;;9.10;;
73474;SDS011;61711;52.266;10.542;2023-05-07T02:44:06;16.60;;;9.25;;
73474;SDS011;61711;52.266;10.542;2023-05-07T02:46:32;16.88;;;9.57;;
73474;SDS011;61711;52.266;10.542;2023-05-07T02:48:58;16.40;;;9.50;;
73474;SDS011;61711;52.266;10.542;2023-05-07T02:51:25;15.68;;;9.20;;
73474;SDS011;61711;52.266;10.542;2023-05-07T02:53:52;14.63;;;8.93;;
73474;SDS011;61711;52.266;10.542;2023-05-07T02:56:18;15.88;;;9.50;;
73474;SDS011;61711;52.266;10.542;2023-05-07T02:58:44;16.13;;;9.65;;
73474;SDS011;61711;52.266;10.542;2023-05-07T03:01:10;16.20;;;9.63;;
73474;SDS011;61711;52.266;10.542;2023-05-07T03:03:38;14.52;;;8.95;;
73474;SDS011;61711;52.266;10.542;2023-05-07T03:06:04;13.70;;;8.52;;
73474;SDS011;61711;52.266;10.542;2023-05-07T03:08:31;14.10;;;8.48;;
73474;SDS011;61711;52.266;10.542;2023-05-07T03:10:57;14.77;;;9.18;;
73474;SDS011;61711;52.266;10.542;2023-05-07T03:13:23;16.63;;;9.30;;
73474;SDS011;61711;52.266;10.542;2023-05-07T03:15:49;15.00;;;9.77;;
73474;SDS011;61711;52.266;10.542;2023-05-07T03:18:15;15.52;;;9.30;;
73474;SDS011;61711;52.266;10.542;2023-05-07T03:20:41;18.05;;;9.88;;
73474;SDS011;61711;52.266;10.542;2023-05-07T03:23:07;14.77;;;9.43;;
73474;SDS011;61711;52.266;10.542;2023-05-07T03:25:33;16.48;;;9.73;;
73474;SDS011;61711;52.266;10.542;2023-05-07T03:27:59;15.40;;;9.40;;
73474;SDS011;61711;52.266;10.542;2023-05-07T03:30:25;15.23;;;9.35;;
73474;SDS011;61711;52.266;10.542;2023-05-07T03:32:51;14.35;;;9.23;;
73474;SDS011;61711;52.266;10.542;2023-05-07T03:35:17;14.48;;;8.90;;
73474;SDS011;61711;52.266;10.542;2023-05-07T03:37:44;14.90;;;9.20;;
73474;SDS011;61711;52.266;10.542;2023-05-07T03:40:10;14.20;;;8.88;;
73474;SDS011;61711;52.266;10.542;2023-05-07T03:42:37;12.93;;;8.23;;
73474;SDS011;61711;52.266;10.542;2023-05-07T03:45:03;13.95;;;8.65;;
73474;SDS011;61711;52.266;10.542;2023-05-07T03:47:29;13.98;;;8.93;;
73474;SDS011;61711;52.266;10.542;2023-05-07T03:49:55;15.63;;;9.30;;
73474;SDS011;61711;52.266;10.542;2023-05-07T03:52:21;12.95;;;8.35;;
73474;SDS011;61711;52.266;10.542;2023-05-07T03:54:48;14.70;;;8.45;;
73474;SDS011;61711;52.266;10.542;2023-05-07T03:57:14;15.23;;;9.38;;
73474;SDS011;61711;52.266;10.542;2023-05-07T03:59:40;17.27;;;9.77;;
73474;SDS011;61711;52.266;10.542;2023-05-07T04:02:06;15.80;;;9.77;;
73474;SDS011;61711;52.266;10.542;2023-05-07T04:04:32;17.80;;;9.55;;
73474;SDS011;61711;52.266;10.542;2023-05-07T04:06:58;14.68;;;9.55;;
73474;SDS011;61711;52.266;10.542;2023-05-07T04:09:25;14.27;;;9.10;;
73474;SDS011;61711;52.266;10.542;2023-05-07T04:11:51;14.45;;;8.75;;
73474;SDS011;61711;52.266;10.542;2023-05-07T04:14:17;14.07;;;8.82;;
73474;SDS011;61711;52.266;10.542;2023-05-07T04:16:43;14.13;;;8.40;;
73474;SDS011;61711;52.266;10.542;2023-05-07T04:19:09;13.02;;;8.05;;
73474;SDS011;61711;52.266;10.542;2023-05-07T04:21:35;13.05;;;8.18;;
73474;SDS011;61711;52.266;10.542;2023-05-07T04:24:02;13.68;;;8.25;;
73474;SDS011;61711;52.266;10.542;2023-05-07T04:26:28;14.63;;;8.80;;
73474;SDS011;61711;52.266;10.542;2023-05-07T04:28:55;13.43;;;8.32;;
73474;SDS011;61711;52.266;10.542;2023-05-07T04:31:22;12.80;;;8.52;;
73474;SDS011;61711;52.266;10.542;2023-05-07T04:33:48;13.98;;;8.90;;
73474;SDS011;61711;52.266;10.542;2023-05-07T04:36:15;12.93;;;8.48;;
73474;SDS011;61711;52.266;10.542;2023-05-07T04:38:41;12.45;;;8.32;;
73474;SDS011;61711;52.266;10.542;2023-05-07T04:41:08;12.68;;;8.27;;
73474;SDS011;61711;52.266;10.542;2023-05-07T04:43:34;15.25;;;9.10;;
73474;SDS011;61711;52.266;10.542;2023-05-07T04:46:00;14.15;;;9.02;;
73474;SDS011;61711;52.266;10.542;2023-05-07T04:48:26;13.57;;;9.10;;
73474;SDS011;61711;52.266;10.542;2023-05-07T04:50:52;13.23;;;8.95;;
73474;SDS011;61711;52.266;10.542;2023-05-07T04:53:18;12.65;;;8.02;;
73474;SDS011;61711;52.266;10.542;2023-05-07T04:55:44;13.27;;;8.75;;
73474;SDS011;61711;52.266;10.542;2023-05-07T04:58:11;12.63;;;8.23;;
73474;SDS011;61711;52.266;10.542;2023-05-07T05:00:37;12.73;;;8.43;;
73474;SDS011;61711;52.266;10.542;2023-05-07T05:03:04;11.43;;;7.93;;
73474;SDS011;61711;52.266;10.542;2023-05-07T05:05:30;11.98;;;8.18;;
73474;SDS011;61711;52.266;10.542;2023-05-07T05:07:56;12.20;;;7.85;;
73474;SDS011;61711;52.266;10.542;2023-05-07T05:10:22;11.60;;;7.72;;
73474;SDS011;61711;52.266;10.542;2023-05-07T05:12:48;10.07;;;7.40;;
73474;SDS011;61711;52.266;10.542;2023-05-07T05:15:14;11.77;;;7.65;;
73474;SDS011;61711;52.266;10.542;2023-05-07T05:17:40;11.25;;;7.88;;
73474;SDS011;61711;52.266;10.542;2023-05-07T05:20:06;12.05;;;7.95;;
73474;SDS011;61711;52.266;10.542;2023-05-07T05:22:34;10.68;;;7.40;;
73474;SDS011;61711;52.266;10.542;2023-05-07T05:25:00;11.52;;;7.53;;
73474;SDS011;61711;52.266;10.542;2023-05-07T05:27:26;11.52;;;7.40;;
73474;SDS011;61711;52.266;10.542;2023-05-07T05:29:52;10.95;;;7.88;;
73474;SDS011;61711;52.266;10.542;2023-05-07T05:32:18;13.23;;;8.35;;
73474;SDS011;61711;52.266;10.542;2023-05-07T05:34:44;13.27;;;8.25;;
73474;SDS011;61711;52.266;10.542;2023-05-07T05:37:10;13.68;;;8.88;;
73474;SDS011;61711;52.266;10.542;2023-05-07T05:39:36;12.43;;;8.45;;
73474;SDS011;61711;52.266;10.542;2023-05-07T05:42:02;13.05;;;8.48;;
73474;SDS011;61711;52.266;10.542;2023-05-07T05:44:28;13.73;;;8.88;;
73474;SDS011;61711;52.266;10.542;2023-05-07T05:46:54;14.63;;;9.52;;
73474;SDS011;61711;52.266;10.542;2023-05-07T05:49:22;13.50;;;8.95;;
73474;SDS011;61711;52.266;10.542;2023-05-07T05:51:48;15.65;;;10.27;;
73474;SDS011;61711;52.266;10.542;2023-05-07T05:54:14;14.20;;;10.02;;
73474;SDS011;61711;52.266;10.542;2023-05-07T05:56:41;15.95;;;10.40;;
73474;SDS011;61711;52.266;10.542;2023-05-07T05:59:07;15.98;;;10.68;;
73474;SDS011;61711;52.266;10.542;2023-05-07T06:01:33;16.80;;;11.07;;
73474;SDS011;61711;52.266;10.542;2023-05-07T06:03:59;14.88;;;10.68;;
73474;SDS011;61711;52.266;10.542;2023-05-07T06:06:25;16.83;;;11.27;;
73474;SDS011;61711;52.266;10.542;2023-05-07T06:08:51;15.10;;;10.57;;
73474;SDS011;61711;52.266;10.542;2023-05-07T06:11:17;15.55;;;10.55;;
73474;SDS011;61711;52.266;10.542;2023-05-07T06:13:43;15.55;;;10.23;;
73474;SDS011;61711;52.266;10.542;2023-05-07T06:16:09;17.25;;;10.57;;
73474;SDS011;61711;52.266;10.542;2023-05-07T06:18:35;17.80;;;10.38;;
73474;SDS011;61711;52.266;10.542;2023-05-07T06:21:01;15.90;;;10.23;;
73474;SDS011;61711;52.266;10.542;2023-05-07T06:23:27;16.63;;;10.35;;
73474;SDS011;61711;52.266;10.542;2023-05-07T06:25:53;16.88;;;10.70;;
73474;SDS011;61711;52.266;10.542;2023-05-07T06:28:19;15.80;;;10.45;;
73474;SDS011;61711;52.266;10.542;2023-05-07T06:30:46;17.63;;;10.75;;
73474;SDS011;61711;52.266;10.542;2023-05-07T06:33:12;14.23;;;9.68;;
73474;SDS011;61711;52.266;10.542;2023-05-07T06:35:38;14.82;;;10.10;;
73474;SDS011;61711;52.266;10.542;2023-05-07T06:38:04;14.48;;;9.65;;
73474;SDS011;61711;52.266;10.542;2023-05-07T06:40:30;13.43;;;9.13;;
73474;SDS011;61711;52.266;10.542;2023-05-07T06:42:56;13.95;;;8.60;;
73474;SDS011;61711;52.266;10.542;2023-05-07T06:45:22;12.85;;;8.77;;
73474;SDS011;61711;52.266;10.542;2023-05-07T06:47:49;12.02;;;8.50;;
73474;SDS011;61711;52.266;10.542;2023-05-07T06:50:15;12.90;;;8.13;;
73474;SDS011;61711;52.266;10.542;2023-05-07T06:52:42;12.80;;;8.40;;
73474;SDS011;61711;52.266;10.542;2023-05-07T06:55:08;12.23;;;8.27;;
73474;SDS011;61711;52.266;10.542;2023-05-07T06:57:36;12.55;;;8.45;;
73474;SDS011;61711;52.266;10.542;2023-05-07T07:00:02;13.32;;;8.23;;
73474;SDS011;61711;52.266;10.542;2023-05-07T07:02:28;11.55;;;7.88;;
73474;SDS011;61711;52.266;10.542;2023-05-07T07:04:54;13.40;;;8.10;;
73474;SDS011;61711;52.266;10.542;2023-05-07T07:07:20;10.82;;;7.50;;
73474;SDS011;61711;52.266;10.542;2023-05-07T07:09:46;11.02;;;7.75;;
73474;SDS011;61711;52.266;10.542;2023-05-07T07:12:12;9.88;;;7.13;;
73474;SDS011;61711;52.266;10.542;2023-05-07T07:14:38;12.02;;;8.13;;
73474;SDS011;61711;52.266;10.542;2023-05-07T07:17:04;12.50;;;8.48;;
73474;SDS011;61711;52.266;10.542;2023-05-07T07:19:30;12.02;;;8.60;;
73474;SDS011;61711;52.266;10.542;2023-05-07T07:21:56;12.52;;;8.32;;
73474;SDS011;61711;52.266;10.542;2023-05-07T07:24:22;12.00;;;8.52;;
73474;SDS011;61711;52.266;10.542;2023-05-07T07:26:48;12.05;;;8.52;;
73474;SDS011;61711;52.266;10.542;2023-05-07T07:29:14;11.90;;;8.18;;
73474;SDS011;61711;52.266;10.542;2023-05-07T07:31:40;13.40;;;9.23;;
73474;SDS011;61711;52.266;10.542;2023-05-07T07:34:06;14.00;;;9.10;;
73474;SDS011;61711;52.266;10.542;2023-05-07T07:36:32;12.68;;;8.70;;
73474;SDS011;61711;52.266;10.542;2023-05-07T07:38:58;12.68;;;8.88;;
73474;SDS011;61711;52.266;10.542;2023-05-07T07:41:24;12.48;;;8.30;;
73474;SDS011;61711;52.266;10.542;2023-05-07T07:43:50;14.50;;;8.98;;
73474;SDS011;61711;52.266;10.542;2023-05-07T07:46:16;12.30;;;8.20;;
73474;SDS011;61711;52.266;10.542;2023-05-07T07:48:42;13.40;;;8.63;;
73474;SDS011;61711;52.266;10.542;2023-05-07T07:51:08;12.80;;;8.25;;
73474;SDS011;61711;52.266;10.542;2023-05-07T07:53:34;13.02;;;8.07;;
73474;SDS011;61711;52.266;10.542;2023-05-07T07:56:00;12.18;;;8.20;;
73474;SDS011;61711;52.266;10.542;2023-05-07T07:58:26;12.77;;;8.15;;
73474;SDS011;61711;52.266;10.542;2023-05-07T08:00:52;12.63;;;8.52;;
73474;SDS011;61711;52.266;10.542;2023-05-07T08:03:20;12.82;;;8.32;;
73474;SDS011;61711;52.266;10.542;2023-05-07T08:05:46;12.73;;;8.38;;
73474;SDS011;61711;52.266;10.542;2023-05-07T08:08:14;13.75;;;8.40;;
73474;SDS011;61711;52.266;10.542;2023-05-07T08:10:40;11.65;;;8.50;;
73474;SDS011;61711;52.266;10.542;2023-05-07T08:13:06;13.90;;;9.05;;
73474;SDS011;61711;52.266;10.542;2023-05-07T08:15:32;13.38;;;8.70;;
73474;SDS011;61711;52.266;10.542;2023-05-07T08:17:58;14.15;;;9.70;;
73474;SDS011;61711;52.266;10.542;2023-05-07T08:20:30;14.07;;;9.75;;
73474;SDS011;61711;52.266;10.542;2023-05-07T08:22:57;16.00;;;10.23;;
73474;SDS011;61711;52.266;10.542;2023-05-07T08:25:23;14.45;;;10.00;;
73474;SDS011;61711;52.266;10.542;2023-05-07T08:27:49;16.13;;;11.02;;
73474;SDS011;61711;52.266;10.542;2023-05-07T08:30:15;15.95;;;10.65;;
73474;SDS011;61711;52.266;10.542;2023-05-07T08:32:41;15.18;;;10.43;;
73474;SDS011;61711;52.266;10.542;2023-05-07T08:35:07;15.07;;;10.35;;
73474;SDS011;61711;52.266;10.542;2023-05-07T08:37:33;17.73;;;11.52;;
73474;SDS011;61711;52.266;10.542;2023-05-07T08:39:59;17.75;;;11.40;;
73474;SDS011;61711;52.266;10.542;2023-05-07T08:42:25;17.48;;;11.65;;
73474;SDS011;61711;52.266;10.542;2023-05-07T08:44:53;17.58;;;11.73;;
73474;SDS011;61711;52.266;10.542;2023-05-07T08:47:22;14.85;;;10.60;;
73474;SDS011;61711;52.266;10.542;2023-05-07T08:49:48;15.77;;;11.23;;
73474;SDS011;61711;52.266;10.542;2023-05-07T08:52:15;15.75;;;10.70;;
73474;SDS011;61711;52.266;10.542;2023-05-07T08:54:41;16.00;;;10.95;;
73474;SDS011;61711;52.266;10.542;2023-05-07T08:57:07;15.25;;;10.43;;
73474;SDS011;61711;52.266;10.542;2023-05-07T08:59:33;15.32;;;10.50;;
73474;SDS011;61711;52.266;10.542;2023-05-07T09:02:00;15.48;;;10.45;;
73474;SDS011;61711;52.266;10.542;2023-05-07T09:04:27;14.95;;;10.75;;
73474;SDS011;61711;52.266;10.542;2023-05-07T09:06:53;14.18;;;10.13;;
73474;SDS011;61711;52.266;10.542;2023-05-07T09:09:19;14.68;;;10.32;;
73474;SDS011;61711;52.266;10.542;2023-05-07T09:11:47;13.75;;;9.32;;
73474;SDS011;61711;52.266;10.542;2023-05-07T09:14:13;14.27;;;10.07;;
73474;SDS011;61711;52.266;10.542;2023-05-07T09:16:39;12.55;;;9.07;;
73474;SDS011;61711;52.266;10.542;2023-05-07T09:19:05;13.85;;;9.65;;
73474;SDS011;61711;52.266;10.542;2023-05-07T09:21:31;13.63;;;9.48;;
73474;SDS011;61711;52.266;10.542;2023-05-07T09:23:57;13.65;;;9.73;;
73474;SDS011;61711;52.266;10.542;2023-05-07T09:26:24;12.63;;;9.40;;
73474;SDS011;61711;52.266;10.542;2023-05-07T09:28:50;13.85;;;9.90;;
73474;SDS011;61711;52.266;10.542;2023-05-07T09:31:16;13.60;;;9.80;;
73474;SDS011;61711;52.266;10.542;2023-05-07T09:33:43;13.88;;;9.35;;
73474;SDS011;61711;52.266;10.542;2023-05-07T09:36:09;14.73;;;9.40;;
73474;SDS011;61711;52.266;10.542;2023-05-07T09:38:36;14.90;;;9.70;;
73474;SDS011;61711;52.266;10.542;2023-05-07T09:41:06;11.68;;;8.43;;
73474;SDS011;61711;52.266;10.542;2023-05-07T09:43:33;14.20;;;8.52;;
73474;SDS011;61711;52.266;10.542;2023-05-07T09:46:03;11.52;;;8.15;;
73474;SDS011;61711;52.266;10.542;2023-05-07T09:48:29;10.93;;;7.53;;
73474;SDS011;61711;52.266;10.542;2023-05-07T09:50:55;10.27;;;7.90;;
73474;SDS011;61711;52.266;10.542;2023-05-07T09:53:23;9.95;;;7.65;;
73474;SDS011;61711;52.266;10.542;2023-05-07T09:55:50;9.90;;;7.78;;
73474;SDS011;61711;52.266;10.542;2023-05-07T09:58:17;10.27;;;7.70;;
73474;SDS011;61711;52.266;10.542;2023-05-07T10:00:44;11.90;;;7.95;;
73474;SDS011;61711;52.266;10.542;2023-05-07T10:03:11;9.18;;;7.25;;
73474;SDS011;61711;52.266;10.542;2023-05-07T10:05:40;9.45;;;7.28;;
73474;SDS011;61711;52.266;10.542;2023-05-07T10:08:06;8.40;;;6.80;;
73474;SDS011;61711;52.266;10.542;2023-05-07T10:10:33;10.18;;;7.38;;
73474;SDS011;61711;52.266;10.542;2023-05-07T10:13:00;9.35;;;7.40;;
73474;SDS011;61711;52.266;10.542;2023-05-07T10:15:30;10.95;;;8.10;;
73474;SDS011;61711;52.266;10.542;2023-05-07T10:17:57;8.25;;;7.10;;
73474;SDS011;61711;52.266;10.542;2023-05-07T10:20:23;8.85;;;7.20;;
73474;SDS011;61711;52.266;10.542;2023-05-07T10:22:50;8.77;;;7.32;;
73474;SDS011;61711;52.266;10.542;2023-05-07T10:25:18;10.52;;;7.22;;
73474;SDS011;61711;52.266;10.542;2023-05-07T10:27:45;9.93;;;7.72;;
73474;SDS011;61711;52.266;10.542;2023-05-07T10:30:15;9.52;;;7.40;;
73474;SDS011;61711;52.266;10.542;2023-05-07T10:32:47;9.93;;;7.55;;
73474;SDS011;61711;52.266;10.542;2023-05-07T10:35:23;9.57;;;7.45;;
73474;SDS011;61711;52.266;10.542;2023-05-07T10:37:50;10.13;;;7.43;;
73474;SDS011;61711;52.266;10.542;2023-05-07T10:40:16;10.85;;;8.13;;
73474;SDS011;61711;52.266;10.542;2023-05-07T10:42:56;11.88;;;8.48;;
73474;SDS011;61711;52.266;10.542;2023-05-07T10:45:24;10.85;;;8.27;;
73474;SDS011;61711;52.266;10.542;2023-05-07T10:50:35;9.43;;;7.72;;
73474;SDS011;61711;52.266;10.542;2023-05-07T10:55:43;8.63;;;7.00;;
73474;SDS011;61711;52.266;10.542;2023-05-07T10:58:22;9.15;;;6.95;;
73474;SDS011;61711;52.266;10.542;2023-05-07T11:00:49;9.45;;;7.05;;
73474;SDS011;61711;52.266;10.542;2023-05-07T11:03:15;9.27;;;7.13;;
73474;SDS011;61711;52.266;10.542;2023-05-07T11:05:41;9.05;;;6.75;;
73474;SDS011;61711;52.266;10.542;2023-05-07T11:08:08;8.07;;;6.95;;
73474;SDS011;61711;52.266;10.542;2023-05-07T11:13:12;7.57;;;6.38;;
73474;SDS011;61711;52.266;10.542;2023-05-07T11:15:40;8.57;;;6.53;;
73474;SDS011;61711;52.266;10.542;2023-05-07T11:18:08;7.05;;;5.47;;
73474;SDS011;61711;52.266;10.542;2023-05-07T11:20:47;8.45;;;5.95;;
73474;SDS011;61711;52.266;10.542;2023-05-07T11:26:03;6.60;;;5.85;;
73474;SDS011;61711;52.266;10.542;2023-05-07T11:28:40;7.20;;;6.10;;
73474;SDS011;61711;52.266;10.542;2023-05-07T11:31:06;6.90;;;5.78;;
73474;SDS011;61711;52.266;10.542;2023-05-07T11:33:33;7.20;;;5.72;;
73474;SDS011;61711;52.266;10.542;2023-05-07T11:36:00;7.88;;;6.00;;
73474;SDS011;61711;52.266;10.542;2023-05-07T11:38:26;10.90;;;6.20;;
73474;SDS011;61711;52.266;10.542;2023-05-07T11:40:52;7.32;;;6.22;;
73474;SDS011;61711;52.266;10.542;2023-05-07T11:43:19;7.35;;;6.18;;
73474;SDS011;61711;52.266;10.542;2023-05-07T11:45:45;9.73;;;7.03;;
73474;SDS011;61711;52.266;10.542;2023-05-07T11:48:14;8.15;;;7.10;;
73474;SDS011;61711;52.266;10.542;2023-05-07T11:53:25;9.05;;;6.65;;
73474;SDS011;61711;52.266;10.542;2023-05-07T11:55:52;7.25;;;5.85;;
73474;SDS011;61711;52.266;10.542;2023-05-07T11:58:22;8.55;;;6.30;;
73474;SDS011;61711;52.266;10.542;2023-05-07T12:00:51;8.52;;;6.47;;
73474;SDS011;61711;52.266;10.542;2023-05-07T12:03:17;8.60;;;6.25;;
73474;SDS011;61711;52.266;10.542;2023-05-07T12:05:44;10.20;;;7.40;;
73474;SDS011;61711;52.266;10.542;2023-05-07T12:08:17;8.90;;;6.90;;
73474;SDS011;61711;52.266;10.542;2023-05-07T12:10:44;9.77;;;6.97;;
73474;SDS011;61711;52.266;10.542;2023-05-07T12:13:23;8.95;;;6.78;;
73474;SDS011;61711;52.266;10.542;2023-05-07T12:15:53;8.10;;;6.40;;
73474;SDS011;61711;52.266;10.542;2023-05-07T12:18:19;8.90;;;6.50;;
73474;SDS011;61711;52.266;10.542;2023-05-07T12:20:46;8.88;;;7.03;;
73474;SDS011;61711;52.266;10.542;2023-05-07T12:23:12;10.80;;;7.47;;
73474;SDS011;61711;52.266;10.542;2023-05-07T12:25:39;9.35;;;6.68;;
73474;SDS011;61711;52.266;10.542;2023-05-07T12:28:12;9.73;;;6.97;;
73474;SDS011;61711;52.266;10.542;2023-05-07T12:30:39;7.63;;;6.40;;
73474;SDS011;61711;52.266;10.542;2023-05-07T12:33:05;9.85;;;7.57;;
73474;SDS011;61711;52.266;10.542;2023-05-07T12:35:32;10.38;;;7.65;;
73474;SDS011;61711;52.266;10.542;2023-05-07T12:38:01;9.80;;;7.47;;
73474;SDS011;61711;52.266;10.542;2023-05-07T12:40:36;9.65;;;6.88;;
73474;SDS011;61711;52.266;10.542;2023-05-07T12:43:02;10.48;;;7.15;;
73474;SDS011;61711;52.266;10.542;2023-05-07T12:45:28;10.00;;;7.57;;
73474;SDS011;61711;52.266;10.542;2023-05-07T12:47:54;10.45;;;7.35;;
73474;SDS011;61711;52.266;10.542;2023-05-07T12:50:20;11.38;;;7.70;;
73474;SDS011;61711;52.266;10.542;2023-05-07T12:52:47;10.98;;;7.13;;
73474;SDS011;61711;52.266;10.542;2023-05-07T12:55:16;9.57;;;6.72;;
73474;SDS011;61711;52.266;10.542;2023-05-07T12:57:43;9.38;;;6.95;;
73474;SDS011;61711;52.266;10.542;2023-05-07T13:00:11;7.97;;;6.47;;
73474;SDS011;61711;52.266;10.542;2023-05-07T13:02:38;9.93;;;7.03;;
73474;SDS011;61711;52.266;10.542;2023-05-07T13:05:04;10.48;;;6.80;;
73474;SDS011;61711;52.266;10.542;2023-05-07T13:07:30;9.43;;;6.90;;
73474;SDS011;61711;52.266;10.542;2023-05-07T13:09:56;9.82;;;7.40;;
73474;SDS011;61711;52.266;10.542;2023-05-07T13:12:22;10.05;;;7.25;;
73474;SDS011;61711;52.266;10.542;2023-05-07T13:14:48;9.60;;;7.22;;
73474;SDS011;61711;52.266;10.542;2023-05-07T13:17:14;9.40;;;6.95;;
73474;SDS011;61711;52.266;10.542;2023-05-07T13:19:40;9.38;;;6.53;;
73474;SDS011;61711;52.266;10.542;2023-05-07T13:22:06;9.15;;;6.72;;
73474;SDS011;61711;52.266;10.542;2023-05-07T13:24:32;8.18;;;6.68;;
73474;SDS011;61711;52.266;10.542;2023-05-07T13:26:58;8.40;;;6.18;;
73474;SDS011;61711;52.266;10.542;2023-05-07T13:29:24;11.52;;;6.32;;
73474;SDS011;61711;52.266;10.542;2023-05-07T13:31:55;9.13;;;6.50;;
73474;SDS011;61711;52.266;10.542;2023-05-07T13:34:21;8.63;;;6.28;;
73474;SDS011;61711;52.266;10.542;2023-05-07T13:36:47;9.25;;;6.68;;
73474;SDS011;61711;52.266;10.542;2023-05-07T13:39:13;8.48;;;6.88;;
73474;SDS011;61711;52.266;10.542;2023-05-07T13:41:39;8.68;;;6.65;;
73474;SDS011;61711;52.266;10.542;2023-05-07T13:44:05;8.43;;;6.57;;
73474;SDS011;61711;52.266;10.542;2023-05-07T13:46:31;9.18;;;6.60;;
73474;SDS011;61711;52.266;10.542;2023-05-07T13:48:57;8.50;;;6.72;;
73474;SDS011;61711;52.266;10.542;2023-05-07T13:51:23;9.38;;;6.75;;
73474;SDS011;61711;52.266;10.542;2023-05-07T13:53:49;8.13;;;6.28;;
73474;SDS011;61711;52.266;10.542;2023-05-07T13:56:15;7.88;;;6.38;;
73474;SDS011;61711;52.266;10.542;2023-05-07T14:01:07;7.72;;;6.20;;
73474;SDS011;61711;52.266;10.542;2023-05-07T14:03:33;9.02;;;6.10;;
73474;SDS011;61711;52.266;10.542;2023-05-07T14:06:00;8.45;;;6.72;;
73474;SDS011;61711;52.266;10.542;2023-05-07T14:08:26;9.50;;;7.00;;
73474;SDS011;61711;52.266;10.542;2023-05-07T14:10:52;9.27;;;6.82;;
73474;SDS011;61711;52.266;10.542;2023-05-07T14:13:18;9.05;;;7.03;;
73474;SDS011;61711;52.266;10.542;2023-05-07T14:15:45;9.95;;;6.63;;
73474;SDS011;61711;52.266;10.542;2023-05-07T14:18:15;7.20;;;6.28;;
73474;SDS011;61711;52.266;10.542;2023-05-07T14:20:41;9.48;;;6.50;;
73474;SDS011;61711;52.266;10.542;2023-05-07T14:23:12;8.98;;;7.22;;
73474;SDS011;61711;52.266;10.542;2023-05-07T14:25:39;8.30;;;6.63;;
73474;SDS011;61711;52.266;10.542;2023-05-07T14:28:05;8.02;;;6.70;;
73474;SDS011;61711;52.266;10.542;2023-05-07T14:30:31;9.52;;;6.70;;
73474;SDS011;61711;52.266;10.542;2023-05-07T14:32:57;8.55;;;6.55;;
73474;SDS011;61711;52.266;10.542;2023-05-07T14:35:23;8.55;;;6.53;;